createdAt,value
2022-09-17T00:00:21.974Z,51.20
2022-09-17T00:01:26.921Z,51.10
2022-09-17T00:02:30.385Z,51.10
2022-09-17T00:03:36.114Z,51.20
2022-09-17T00:04:38.406Z,51.00
2022-09-17T00:05:40.775Z,51.10
2022-09-17T00:06:43.100Z,51.00
2022-09-17T00:07:45.587Z,51.00
2022-09-17T00:08:48.003Z,51.60
2022-09-17T00:09:50.323Z,51.00
2022-09-17T00:10:52.825Z,51.10
2022-09-17T00:11:55.189Z,51.10
2022-09-17T00:12:57.671Z,51.10
2022-09-17T00:14:02.769Z,51.00
2022-09-17T00:15:07.689Z,51.10
2022-09-17T00:16:11.490Z,51.00
2022-09-17T00:17:13.917Z,51.00
2022-09-17T00:18:16.451Z,51.00
2022-09-17T00:19:22.936Z,51.00
2022-09-17T00:20:27.828Z,50.90
2022-09-17T00:21:30.640Z,51.00
2022-09-17T00:22:32.978Z,50.90
2022-09-17T00:23:35.287Z,50.90
2022-09-17T00:24:37.641Z,50.90
2022-09-17T00:25:41.772Z,50.90
2022-09-17T00:26:47.235Z,50.80
2022-09-17T00:27:49.609Z,50.90
2022-09-17T00:28:54.142Z,50.80
2022-09-17T00:29:56.487Z,50.80
2022-09-17T00:30:58.841Z,50.80
2022-09-17T00:32:01.230Z,50.80
2022-09-17T00:33:03.807Z,50.70
2022-09-17T00:34:06.977Z,50.70
2022-09-17T00:35:09.426Z,50.80
2022-09-17T00:36:11.835Z,51.20
2022-09-17T00:37:14.143Z,50.70
2022-09-17T00:38:17.448Z,50.80
2022-09-17T00:39:21.512Z,50.70
2022-09-17T00:40:24.421Z,50.80
2022-09-17T00:41:30.053Z,50.80
2022-09-17T00:42:32.424Z,50.70
2022-09-17T00:43:44.433Z,50.70
2022-09-17T00:44:50.822Z,50.60
2022-09-17T00:45:59.835Z,50.60
2022-09-17T00:47:02.308Z,50.50
2022-09-17T00:48:06.417Z,50.50
2022-09-17T00:49:16.096Z,50.50
2022-09-17T00:50:24.356Z,50.40
2022-09-17T00:51:33.504Z,50.50
2022-09-17T00:52:43.456Z,50.40
2022-09-17T00:53:46.149Z,50.40
2022-09-17T00:54:58.183Z,50.40
2022-09-17T00:56:24.310Z,50.40
2022-09-17T00:57:27.048Z,50.50
2022-09-17T00:58:32.511Z,50.50
2022-09-17T00:59:35.606Z,50.20
2022-09-17T01:00:38.840Z,50.30
2022-09-17T01:01:41.458Z,50.20
2022-09-17T01:02:43.975Z,50.20
2022-09-17T01:03:46.974Z,50.30
2022-09-17T01:04:49.455Z,50.30
2022-09-17T01:06:02.062Z,50.10
2022-09-17T01:07:22.639Z,50.20
2022-09-17T01:08:49.418Z,50.20
2022-09-17T01:10:10.535Z,50.50
2022-09-17T01:11:39.183Z,50.30
2022-09-17T01:13:03.085Z,50.20
2022-09-17T01:14:40.591Z,50.20
2022-09-17T01:16:12.237Z,50.20
2022-09-17T01:17:18.240Z,50.10
2022-09-17T01:18:55.696Z,50.00
2022-09-17T01:20:16.760Z,50.00
2022-09-17T01:21:45.100Z,50.00
2022-09-17T01:23:18.992Z,50.00
2022-09-17T01:25:00.482Z,50.00
2022-09-17T01:26:21.578Z,50.00
2022-09-17T01:27:45.865Z,49.90
2022-09-17T01:29:20.342Z,49.90
2022-09-17T01:31:04.876Z,49.70
2022-09-17T01:32:34.253Z,49.70
2022-09-17T01:33:43.411Z,49.70
2022-09-17T01:34:59.380Z,49.70
2022-09-17T01:36:36.081Z,49.60
2022-09-17T01:38:02.764Z,49.60
2022-09-17T01:39:12.820Z,49.60
2022-09-17T01:40:32.612Z,49.60
2022-09-17T01:41:54.823Z,49.50
2022-09-17T01:43:15.499Z,49.60
2022-09-17T01:44:24.540Z,49.50
2022-09-17T01:45:43.216Z,49.60
2022-09-17T01:46:54.648Z,49.50
2022-09-17T01:48:06.554Z,49.60
2022-09-17T01:49:11.356Z,49.50
2022-09-17T01:50:19.846Z,49.60
2022-09-17T01:51:27.433Z,49.50
2022-09-17T01:52:33.994Z,49.60
2022-09-17T01:54:04.741Z,49.50
2022-09-17T01:55:11.379Z,49.50
2022-09-17T01:56:17.300Z,49.40
2022-09-17T01:57:33.709Z,49.50
2022-09-17T01:58:50.823Z,49.50
2022-09-17T02:00:17.752Z,49.40
2022-09-17T02:01:24.161Z,49.40
2022-09-17T02:02:41.910Z,49.50
2022-09-17T02:03:50.598Z,49.50
2022-09-17T02:05:00.154Z,50.10
2022-09-17T02:06:09.844Z,49.50
2022-09-17T02:07:20.342Z,49.40
2022-09-17T02:08:26.261Z,49.40
2022-09-17T02:09:47.301Z,49.50
2022-09-17T02:11:06.552Z,49.50
2022-09-17T02:12:14.837Z,49.50
2022-09-17T02:13:22.982Z,49.40
2022-09-17T02:14:30.177Z,49.40
2022-09-17T02:15:49.525Z,49.40
2022-09-17T02:16:56.995Z,49.40
2022-09-17T02:18:06.587Z,49.40
2022-09-17T02:19:09.163Z,49.40
2022-09-17T02:20:12.465Z,49.40
2022-09-17T02:21:20.324Z,49.40
2022-09-17T02:22:35.368Z,49.40
2022-09-17T02:23:57.708Z,49.40
2022-09-17T02:25:06.936Z,49.30
2022-09-17T02:26:15.373Z,49.40
2022-09-17T02:27:57.767Z,49.30
2022-09-17T02:29:08.856Z,49.40
2022-09-17T02:30:11.475Z,49.40
2022-09-17T02:31:14.332Z,49.30
2022-09-17T02:32:16.976Z,49.40
2022-09-17T02:33:20.347Z,49.40
2022-09-17T02:34:23.375Z,49.40
2022-09-17T02:35:25.939Z,49.30
2022-09-17T02:36:29.577Z,49.30
2022-09-17T02:37:32.162Z,49.30
2022-09-17T02:38:35.480Z,49.40
2022-09-17T02:39:38.441Z,49.30
2022-09-17T02:40:51.917Z,49.30
2022-09-17T02:42:22.318Z,49.30
2022-09-17T02:43:41.797Z,49.30
2022-09-17T02:45:28.936Z,49.40
2022-09-17T02:46:48.091Z,49.40
2022-09-17T02:48:12.505Z,49.40
2022-09-17T02:49:42.717Z,49.30
2022-09-17T02:51:03.681Z,49.40
2022-09-17T02:52:16.121Z,49.40
2022-09-17T02:53:48.367Z,49.30
2022-09-17T02:55:05.240Z,49.30
2022-09-17T02:56:39.894Z,49.30
2022-09-17T02:57:53.945Z,49.30
2022-09-17T02:59:14.152Z,49.30
2022-09-17T03:00:22.311Z,49.30
2022-09-17T03:01:28.235Z,49.30
2022-09-17T03:02:45.701Z,49.30
2022-09-17T03:03:51.202Z,49.30
2022-09-17T03:04:55.118Z,49.30
2022-09-17T03:05:58.135Z,49.20
2022-09-17T03:07:07.935Z,49.30
2022-09-17T03:08:14.344Z,49.30
2022-09-17T03:09:17.041Z,49.30
2022-09-17T03:10:19.904Z,49.30
2022-09-17T03:11:22.298Z,49.30
2022-09-17T03:12:24.826Z,49.80
2022-09-17T03:13:27.218Z,49.30
2022-09-17T03:14:30.388Z,49.20
2022-09-17T03:15:33.080Z,49.20
2022-09-17T03:16:35.399Z,49.20
2022-09-17T03:17:37.767Z,49.20
2022-09-17T03:18:40.133Z,49.20
2022-09-17T03:19:42.552Z,49.30
2022-09-17T03:20:46.403Z,49.20
2022-09-17T03:21:48.742Z,49.20
2022-09-17T03:22:52.875Z,49.20
2022-09-17T03:23:55.284Z,49.20
2022-09-17T03:24:57.565Z,49.20
2022-09-17T03:26:01.153Z,49.20
2022-09-17T03:27:03.617Z,49.20
2022-09-17T03:28:05.921Z,49.20
2022-09-17T03:29:11.021Z,49.20
2022-09-17T03:30:13.461Z,49.20
2022-09-17T03:31:15.798Z,49.20
2022-09-17T03:32:18.183Z,49.20
2022-09-17T03:33:20.996Z,49.20
2022-09-17T03:34:23.845Z,49.20
2022-09-17T03:35:26.185Z,49.20
2022-09-17T03:36:28.477Z,49.20
2022-09-17T03:37:33.183Z,49.10
2022-09-17T03:38:35.632Z,49.20
2022-09-17T03:39:38.118Z,49.20
2022-09-17T03:40:40.709Z,49.10
2022-09-17T03:41:43.111Z,49.10
2022-09-17T03:42:45.670Z,49.20
2022-09-17T03:43:48.230Z,49.10
2022-09-17T03:44:50.679Z,49.10
2022-09-17T03:45:53.203Z,49.10
2022-09-17T03:46:55.632Z,49.10
2022-09-17T03:47:58.070Z,49.00
2022-09-17T03:49:00.675Z,49.10
2022-09-17T03:50:03.826Z,49.10
2022-09-17T03:51:06.598Z,49.10
2022-09-17T03:52:09.295Z,49.00
2022-09-17T03:53:11.771Z,49.10
2022-09-17T03:54:14.085Z,49.10
2022-09-17T03:55:17.296Z,49.10
2022-09-17T03:56:19.909Z,49.00
2022-09-17T03:57:22.904Z,49.10
2022-09-17T03:58:25.645Z,49.00
2022-09-17T03:59:29.687Z,49.10
2022-09-17T04:00:32.174Z,49.10
2022-09-17T04:01:35.140Z,49.10
2022-09-17T04:02:37.688Z,49.00
2022-09-17T04:03:40.129Z,49.00
2022-09-17T04:04:42.875Z,49.00
2022-09-17T04:05:45.392Z,49.00
2022-09-17T04:06:47.752Z,49.00
2022-09-17T04:07:50.480Z,48.90
2022-09-17T04:08:53.436Z,49.00
2022-09-17T04:09:55.828Z,49.00
2022-09-17T04:10:58.259Z,49.00
2022-09-17T04:12:00.653Z,49.00
2022-09-17T04:13:03.049Z,48.90
2022-09-17T04:14:05.394Z,49.00
2022-09-17T04:15:09.263Z,48.90
2022-09-17T04:16:12.248Z,49.00
2022-09-17T04:17:18.293Z,49.00
2022-09-17T04:18:20.834Z,48.90
2022-09-17T04:19:23.188Z,49.50
2022-09-17T04:20:26.059Z,48.90
2022-09-17T04:21:28.461Z,49.00
2022-09-17T04:22:30.798Z,49.00
2022-09-17T04:23:33.259Z,49.00
2022-09-17T04:24:35.928Z,48.90
2022-09-17T04:25:38.903Z,48.90
2022-09-17T04:26:41.314Z,49.60
2022-09-17T04:27:48.749Z,49.00
2022-09-17T04:28:51.079Z,49.00
2022-09-17T04:29:56.483Z,48.90
2022-09-17T04:30:59.013Z,48.90
2022-09-17T04:32:01.572Z,48.90
2022-09-17T04:33:04.409Z,48.90
2022-09-17T04:34:06.791Z,48.90
2022-09-17T04:35:09.483Z,49.00
2022-09-17T04:36:11.844Z,49.00
2022-09-17T04:37:14.368Z,49.00
2022-09-17T04:38:18.633Z,49.00
2022-09-17T04:39:21.014Z,48.90
2022-09-17T04:40:25.469Z,48.90
2022-09-17T04:41:27.846Z,48.90
2022-09-17T04:42:30.246Z,48.90
2022-09-17T04:43:32.510Z,49.00
2022-09-17T04:44:34.857Z,49.00
2022-09-17T04:45:37.286Z,49.00
2022-09-17T04:46:39.977Z,49.00
2022-09-17T04:47:42.294Z,49.00
2022-09-17T04:48:44.633Z,49.10
2022-09-17T04:49:46.968Z,49.00
2022-09-17T04:50:49.316Z,49.00
2022-09-17T04:51:51.673Z,49.00
2022-09-17T04:52:54.052Z,49.00
2022-09-17T04:53:56.364Z,49.10
2022-09-17T04:54:58.704Z,49.20
2022-09-17T04:56:01.246Z,49.20
2022-09-17T04:57:03.934Z,49.20
2022-09-17T04:58:06.352Z,49.10
2022-09-17T04:59:08.754Z,49.10
2022-09-17T05:00:11.591Z,49.10
2022-09-17T05:01:15.167Z,49.20
2022-09-17T05:02:17.755Z,49.10
2022-09-17T05:03:20.123Z,49.20
2022-09-17T05:04:22.462Z,49.20
2022-09-17T05:05:25.568Z,49.20
2022-09-17T05:06:27.885Z,49.30
2022-09-17T05:07:30.201Z,49.20
2022-09-17T05:08:32.538Z,49.20
2022-09-17T05:09:34.975Z,49.30
2022-09-17T05:10:37.422Z,49.30
2022-09-17T05:11:39.748Z,49.30
2022-09-17T05:12:47.116Z,49.30
2022-09-17T05:13:49.917Z,49.30
2022-09-17T05:14:52.204Z,49.30
2022-09-17T05:15:58.592Z,49.30
2022-09-17T05:17:00.962Z,49.40
2022-09-17T05:18:04.197Z,49.40
2022-09-17T05:19:06.531Z,49.40
2022-09-17T05:20:10.241Z,49.60
2022-09-17T05:21:12.701Z,49.50
2022-09-17T05:22:18.343Z,50.00
2022-09-17T05:23:23.346Z,49.50
2022-09-17T05:24:27.495Z,49.50
2022-09-17T05:25:30.883Z,49.60
2022-09-17T05:26:33.323Z,49.50
2022-09-17T05:27:35.884Z,49.60
2022-09-17T05:28:38.202Z,49.60
2022-09-17T05:29:40.707Z,49.60
2022-09-17T05:30:43.058Z,49.60
2022-09-17T05:31:45.394Z,49.70
2022-09-17T05:32:47.939Z,49.60
2022-09-17T05:33:50.319Z,49.60
2022-09-17T05:34:52.675Z,49.60
2022-09-17T05:35:55.211Z,49.60
2022-09-17T05:36:57.573Z,49.70
2022-09-17T05:38:05.329Z,49.70
2022-09-17T05:39:08.112Z,50.30
2022-09-17T05:40:10.629Z,49.70
2022-09-17T05:41:12.973Z,49.70
2022-09-17T05:42:15.375Z,49.70
2022-09-17T05:43:18.118Z,49.70
2022-09-17T05:44:20.818Z,49.80
2022-09-17T05:45:23.234Z,49.70
2022-09-17T05:46:25.558Z,49.80
2022-09-17T05:47:27.944Z,49.80
2022-09-17T05:48:30.337Z,49.80
2022-09-17T05:49:32.682Z,49.80
2022-09-17T05:50:35.010Z,49.80
2022-09-17T05:51:38.073Z,49.80
2022-09-17T05:52:40.626Z,49.80
2022-09-17T05:53:42.988Z,49.80
2022-09-17T05:54:45.332Z,49.90
2022-09-17T05:55:47.707Z,49.90
2022-09-17T05:56:54.043Z,49.90
2022-09-17T05:57:56.383Z,49.90
2022-09-17T05:58:58.718Z,49.90
2022-09-17T06:00:01.259Z,49.90
2022-09-17T06:01:04.346Z,50.00
2022-09-17T06:02:06.823Z,49.90
2022-09-17T06:03:14.044Z,49.90
2022-09-17T06:04:18.848Z,50.00
2022-09-17T06:05:21.234Z,50.00
2022-09-17T06:06:23.588Z,50.00
2022-09-17T06:07:26.030Z,50.00
2022-09-17T06:08:29.167Z,50.00
2022-09-17T06:09:31.460Z,50.00
2022-09-17T06:10:37.323Z,50.00
2022-09-17T06:11:39.807Z,50.00
2022-09-17T06:12:42.223Z,50.00
2022-09-17T06:13:44.611Z,50.00
2022-09-17T06:14:46.958Z,50.00
2022-09-17T06:15:53.719Z,50.60
2022-09-17T06:16:56.675Z,50.10
2022-09-17T06:17:58.994Z,50.00
2022-09-17T06:19:01.716Z,50.10
2022-09-17T06:20:06.080Z,50.10
2022-09-17T06:21:09.078Z,50.10
2022-09-17T06:22:11.554Z,50.10
2022-09-17T06:23:15.965Z,50.10
2022-09-17T06:24:18.442Z,50.10
2022-09-17T06:25:20.779Z,50.10
2022-09-17T06:26:23.438Z,50.10
2022-09-17T06:27:31.806Z,50.10
2022-09-17T06:28:37.890Z,50.10
2022-09-17T06:29:43.235Z,50.10
2022-09-17T06:30:45.572Z,50.20
2022-09-17T06:31:48.950Z,50.10
2022-09-17T06:32:51.613Z,50.20
2022-09-17T06:33:58.244Z,50.20
2022-09-17T06:35:01.556Z,50.20
2022-09-17T06:36:13.653Z,50.20
2022-09-17T06:37:18.098Z,50.30
2022-09-17T06:38:20.474Z,50.20
2022-09-17T06:39:42.791Z,50.20
2022-09-17T06:40:51.843Z,50.20
2022-09-17T06:41:54.094Z,50.30
2022-09-17T06:42:59.318Z,50.30
2022-09-17T06:44:03.676Z,50.30
2022-09-17T06:45:09.468Z,50.30
2022-09-17T06:46:15.038Z,50.90
2022-09-17T06:47:20.808Z,50.30
2022-09-17T06:48:23.987Z,50.30
2022-09-17T06:49:29.157Z,50.30
2022-09-17T06:50:31.583Z,50.30
2022-09-17T06:51:33.970Z,50.30
2022-09-17T06:52:36.251Z,50.30
2022-09-17T06:53:41.746Z,50.30
2022-09-17T06:54:44.174Z,50.50
2022-09-17T06:55:46.574Z,50.40
2022-09-17T06:56:48.993Z,50.30
2022-09-17T06:57:51.406Z,50.40
2022-09-17T06:58:54.475Z,50.40
2022-09-17T06:59:56.780Z,50.40
2022-09-17T07:01:02.873Z,50.40
2022-09-17T07:02:05.527Z,50.50
2022-09-17T07:03:09.477Z,50.40
2022-09-17T07:04:12.199Z,50.40
2022-09-17T07:05:14.609Z,50.40
2022-09-17T07:06:17.264Z,50.40
2022-09-17T07:07:19.552Z,50.40
2022-09-17T07:08:22.026Z,50.40
2022-09-17T07:09:24.417Z,50.40
2022-09-17T07:10:26.910Z,50.40
2022-09-17T07:11:32.098Z,50.40
2022-09-17T07:12:34.395Z,50.50
2022-09-17T07:13:36.768Z,50.50
2022-09-17T07:14:40.523Z,50.50
2022-09-17T07:15:42.962Z,50.40
2022-09-17T07:16:45.330Z,50.50
2022-09-17T07:17:47.648Z,50.50
2022-09-17T07:18:49.956Z,50.50
2022-09-17T07:19:52.283Z,50.50
2022-09-17T07:21:02.864Z,50.50
2022-09-17T07:22:05.155Z,50.50
2022-09-17T07:23:07.487Z,50.60
2022-09-17T07:24:09.782Z,50.50
2022-09-17T07:25:12.581Z,50.60
2022-09-17T07:26:16.658Z,50.60
2022-09-17T07:27:18.997Z,50.60
2022-09-17T07:28:22.645Z,50.60
2022-09-17T07:29:28.528Z,50.60
2022-09-17T07:30:30.919Z,50.60
2022-09-17T07:31:33.329Z,50.60
2022-09-17T07:32:35.722Z,50.60
2022-09-17T07:33:39.337Z,50.60
2022-09-17T07:34:41.688Z,50.60
2022-09-17T07:35:51.878Z,51.20
2022-09-17T07:36:54.207Z,50.60
2022-09-17T07:37:56.578Z,50.60
2022-09-17T07:38:58.874Z,50.60
2022-09-17T07:40:01.457Z,50.60
2022-09-17T07:41:09.711Z,50.60
2022-09-17T07:42:12.076Z,50.70
2022-09-17T07:43:15.199Z,50.70
2022-09-17T07:44:17.731Z,51.30
2022-09-17T07:45:20.115Z,50.70
2022-09-17T07:46:22.858Z,50.70
2022-09-17T07:47:25.344Z,50.70
2022-09-17T07:48:28.881Z,50.70
2022-09-17T07:49:31.302Z,50.70
2022-09-17T07:50:34.033Z,50.70
2022-09-17T07:51:36.351Z,50.70
2022-09-17T07:52:38.783Z,50.80
2022-09-17T07:53:41.298Z,50.80
2022-09-17T07:54:43.684Z,50.70
2022-09-17T07:55:57.081Z,50.80
2022-09-17T07:57:00.222Z,50.80
2022-09-17T07:58:02.602Z,50.80
2022-09-17T07:59:05.423Z,50.80
2022-09-17T08:00:08.955Z,50.80
2022-09-17T08:01:20.809Z,50.80
2022-09-17T08:02:24.550Z,50.80
2022-09-17T08:03:27.095Z,50.80
2022-09-17T08:04:29.416Z,50.80
2022-09-17T08:05:32.632Z,50.80
2022-09-17T08:06:38.264Z,50.80
2022-09-17T08:07:40.631Z,50.80
2022-09-17T08:08:43.190Z,50.80
2022-09-17T08:09:45.503Z,50.80
2022-09-17T08:10:47.909Z,50.90
2022-09-17T08:11:57.270Z,50.90
2022-09-17T08:12:59.673Z,50.90
2022-09-17T08:14:02.108Z,50.90
2022-09-17T08:15:05.020Z,50.90
2022-09-17T08:16:10.394Z,50.90
2022-09-17T08:17:12.978Z,50.90
2022-09-17T08:18:17.387Z,50.90
2022-09-17T08:19:20.277Z,50.90
2022-09-17T08:20:24.176Z,50.90
2022-09-17T08:21:26.785Z,50.90
2022-09-17T08:22:30.779Z,50.90
2022-09-17T08:23:36.278Z,50.90
2022-09-17T08:24:38.799Z,50.90
2022-09-17T08:25:41.127Z,50.90
2022-09-17T08:26:43.625Z,50.90
2022-09-17T08:27:45.958Z,50.90
2022-09-17T08:28:50.553Z,50.90
2022-09-17T08:29:52.909Z,50.90
2022-09-17T08:31:00.027Z,51.00
2022-09-17T08:32:02.962Z,50.90
2022-09-17T08:33:05.312Z,51.00
2022-09-17T08:34:09.638Z,51.00
2022-09-17T08:35:12.056Z,51.00
2022-09-17T08:36:17.474Z,51.00
2022-09-17T08:37:20.604Z,51.00
2022-09-17T08:38:22.982Z,51.00
2022-09-17T08:39:42.989Z,51.00
2022-09-17T08:41:12.951Z,51.00
2022-09-17T08:42:41.679Z,51.00
2022-09-17T08:44:06.223Z,51.00
2022-09-17T08:45:14.157Z,51.00
2022-09-17T08:46:16.630Z,51.00
2022-09-17T08:47:27.899Z,51.00
2022-09-17T08:48:47.512Z,51.00
2022-09-17T08:49:59.238Z,51.00
2022-09-17T08:51:16.700Z,51.10
2022-09-17T08:52:24.869Z,51.10
2022-09-17T08:53:40.165Z,51.10
2022-09-17T08:55:11.745Z,51.20
2022-09-17T08:56:19.011Z,51.10
2022-09-17T08:57:42.469Z,51.10
2022-09-17T08:59:18.406Z,51.10
2022-09-17T09:00:24.510Z,51.10
2022-09-17T09:01:59.872Z,51.10
2022-09-17T09:03:26.646Z,51.10
2022-09-17T09:04:29.367Z,51.10
2022-09-17T09:05:47.866Z,51.10
2022-09-17T09:06:55.544Z,51.10
2022-09-17T09:08:07.535Z,51.10
2022-09-17T09:09:16.811Z,51.10
2022-09-17T09:10:25.003Z,51.20
2022-09-17T09:11:30.982Z,51.10
2022-09-17T09:12:36.793Z,51.10
2022-09-17T09:13:44.529Z,51.10
2022-09-17T09:14:56.190Z,51.10
2022-09-17T09:16:03.318Z,51.10
2022-09-17T09:17:09.753Z,51.10
2022-09-17T09:18:22.755Z,51.10
2022-09-17T09:19:30.419Z,51.10
2022-09-17T09:20:46.100Z,51.10
2022-09-17T09:22:04.919Z,51.00
2022-09-17T09:23:20.198Z,51.00
2022-09-17T09:24:26.083Z,51.00
2022-09-17T09:25:36.995Z,51.00
2022-09-17T09:26:49.086Z,51.00
2022-09-17T09:28:10.172Z,50.90
2022-09-17T09:29:30.655Z,50.90
2022-09-17T09:30:45.491Z,51.00
2022-09-17T09:32:16.170Z,50.90
2022-09-17T09:33:27.797Z,50.90
2022-09-17T09:34:34.674Z,50.90
2022-09-17T09:35:41.461Z,50.90
2022-09-17T09:36:45.317Z,50.70
2022-09-17T09:37:54.048Z,51.30
2022-09-17T09:38:59.973Z,50.70
2022-09-17T09:40:19.009Z,50.70
2022-09-17T09:41:43.378Z,50.70
2022-09-17T09:42:46.915Z,50.70
2022-09-17T09:44:05.921Z,50.70
2022-09-17T09:45:43.692Z,50.60
2022-09-17T09:47:09.807Z,50.40
2022-09-17T09:48:30.797Z,50.60
2022-09-17T09:49:59.193Z,50.50
2022-09-17T09:51:07.427Z,50.50
2022-09-17T09:52:44.348Z,50.40
2022-09-17T09:54:18.187Z,50.40
2022-09-17T09:55:43.350Z,50.40
2022-09-17T09:56:58.975Z,50.30
2022-09-17T09:58:16.350Z,50.40
2022-09-17T09:59:19.782Z,50.20
2022-09-17T10:00:36.560Z,50.20
2022-09-17T10:01:43.614Z,50.10
2022-09-17T10:02:47.186Z,50.10
2022-09-17T10:03:54.036Z,50.00
2022-09-17T10:05:08.573Z,50.00
2022-09-17T10:06:11.969Z,50.00
2022-09-17T10:07:14.539Z,49.90
2022-09-17T10:08:16.872Z,49.90
2022-09-17T10:09:23.214Z,49.80
2022-09-17T10:10:25.671Z,49.90
2022-09-17T10:11:33.059Z,49.80
2022-09-17T10:12:35.710Z,49.70
2022-09-17T10:13:39.097Z,49.70
2022-09-17T10:14:44.256Z,49.60
2022-09-17T10:15:46.764Z,49.60
2022-09-17T10:16:49.159Z,49.60
2022-09-17T10:18:21.305Z,49.50
2022-09-17T10:19:25.615Z,49.60
2022-09-17T10:20:28.122Z,49.60
2022-09-17T10:21:33.587Z,49.50
2022-09-17T10:22:38.835Z,49.40
2022-09-17T10:23:43.899Z,49.50
2022-09-17T10:24:47.128Z,49.40
2022-09-17T10:25:52.092Z,49.30
2022-09-17T10:27:07.513Z,49.30
2022-09-17T10:28:40.639Z,49.40
2022-09-17T10:29:45.977Z,49.30
2022-09-17T10:30:59.162Z,49.20
2022-09-17T10:32:06.779Z,49.20
2022-09-17T10:33:28.224Z,49.20
2022-09-17T10:34:31.641Z,49.20
2022-09-17T10:35:37.810Z,49.10
2022-09-17T10:36:42.926Z,49.00
2022-09-17T10:37:47.923Z,48.90
2022-09-17T10:38:50.244Z,49.10
2022-09-17T10:39:53.606Z,49.00
2022-09-17T10:41:22.697Z,49.00
2022-09-17T10:42:25.186Z,48.90
2022-09-17T10:43:27.719Z,48.90
2022-09-17T10:44:35.337Z,48.80
2022-09-17T10:45:40.783Z,48.70
2022-09-17T10:46:43.155Z,48.80
2022-09-17T10:47:45.497Z,48.70
2022-09-17T10:49:18.073Z,48.70
2022-09-17T10:50:25.530Z,48.50
2022-09-17T10:51:28.183Z,49.20
2022-09-17T10:52:37.074Z,48.50
2022-09-17T10:54:05.364Z,48.60
2022-09-17T10:55:30.349Z,48.60
2022-09-17T10:56:36.978Z,48.50
2022-09-17T10:58:07.046Z,48.50
2022-09-17T10:59:54.284Z,48.40
2022-09-17T11:01:08.235Z,48.40
2022-09-17T11:02:40.803Z,48.40
2022-09-17T11:03:59.602Z,48.30
2022-09-17T11:05:25.339Z,48.20
2022-09-17T11:06:44.386Z,48.20
2022-09-17T11:08:01.228Z,48.70
2022-09-17T11:09:29.339Z,48.20
2022-09-17T11:11:05.033Z,48.00
2022-09-17T11:12:24.807Z,48.00
2022-09-17T11:14:04.089Z,48.00
2022-09-17T11:15:45.635Z,47.90
2022-09-17T11:17:01.980Z,47.90
2022-09-17T11:18:22.207Z,47.90
2022-09-17T11:19:36.341Z,47.80
2022-09-17T11:20:44.674Z,47.90
2022-09-17T11:21:56.303Z,47.80
2022-09-17T11:23:12.433Z,47.80
2022-09-17T11:24:20.599Z,47.80
2022-09-17T11:25:27.796Z,47.70
2022-09-17T11:26:38.834Z,47.70
2022-09-17T11:28:08.746Z,47.80
2022-09-17T11:29:11.307Z,47.60
2022-09-17T11:30:16.649Z,47.60
2022-09-17T11:31:43.063Z,47.60
2022-09-17T11:33:16.058Z,47.40
2022-09-17T11:34:32.394Z,47.50
2022-09-17T11:35:46.584Z,47.40
2022-09-17T11:37:11.089Z,47.40
2022-09-17T11:38:20.029Z,47.40
2022-09-17T11:39:29.483Z,47.40
2022-09-17T11:40:44.679Z,47.40
2022-09-17T11:41:52.325Z,47.40
2022-09-17T11:43:01.993Z,47.40
2022-09-17T11:44:13.190Z,47.30
2022-09-17T11:45:22.203Z,47.30
2022-09-17T11:46:39.222Z,47.30
2022-09-17T11:47:55.915Z,47.20
2022-09-17T11:49:39.157Z,47.20
2022-09-17T11:50:56.280Z,46.80
2022-09-17T11:52:04.070Z,47.10
2022-09-17T11:53:19.578Z,47.20
2022-09-17T11:54:43.682Z,47.10
2022-09-17T11:56:02.810Z,47.10
2022-09-17T11:57:18.912Z,47.00
2022-09-17T11:58:37.736Z,47.00
2022-09-17T11:59:51.927Z,47.10
2022-09-17T12:01:11.358Z,47.00
2022-09-17T12:02:26.504Z,46.90
2022-09-17T12:03:53.225Z,46.90
2022-09-17T12:05:08.352Z,46.80
2022-09-17T12:06:18.027Z,46.90
2022-09-17T12:07:50.073Z,46.80
2022-09-17T12:09:00.152Z,46.80
2022-09-17T12:10:37.272Z,46.70
2022-09-17T12:11:46.697Z,46.60
2022-09-17T12:13:13.600Z,46.70
2022-09-17T12:14:44.645Z,46.70
2022-09-17T12:15:53.615Z,46.50
2022-09-17T12:17:02.934Z,46.60
2022-09-17T12:18:30.606Z,46.70
2022-09-17T12:19:42.373Z,46.60
2022-09-17T12:20:49.204Z,46.60
2022-09-17T12:22:08.639Z,46.60
2022-09-17T12:23:15.666Z,46.50
2022-09-17T12:24:25.953Z,46.60
2022-09-17T12:25:36.476Z,46.60
2022-09-17T12:27:19.808Z,46.50
2022-09-17T12:28:45.916Z,46.40
2022-09-17T12:30:13.337Z,46.50
2022-09-17T12:31:23.318Z,46.40
2022-09-17T12:32:48.063Z,46.50
2022-09-17T12:34:17.881Z,46.40
2022-09-17T12:36:03.040Z,46.50
2022-09-17T12:37:20.546Z,46.50
2022-09-17T12:38:47.481Z,46.50
2022-09-17T12:40:18.998Z,46.50
2022-09-17T12:41:41.598Z,46.40
2022-09-17T12:43:08.201Z,46.50
2022-09-17T12:44:15.854Z,46.40
2022-09-17T12:45:27.257Z,46.50
2022-09-17T12:46:58.716Z,46.50
2022-09-17T12:48:24.828Z,46.50
2022-09-17T12:49:57.800Z,46.40
2022-09-17T12:51:36.715Z,46.40
2022-09-17T12:53:00.080Z,46.40
2022-09-17T12:54:22.227Z,46.50
2022-09-17T12:55:53.574Z,46.50
2022-09-17T12:57:19.292Z,46.60
2022-09-17T12:58:47.946Z,46.50
2022-09-17T13:00:05.239Z,46.60
2022-09-17T13:01:45.682Z,46.50
2022-09-17T13:03:20.094Z,46.50
2022-09-17T13:05:00.575Z,46.50
2022-09-17T13:06:44.086Z,46.50
2022-09-17T13:08:12.550Z,46.50
2022-09-17T13:09:27.272Z,46.60
2022-09-17T13:10:47.009Z,46.60
2022-09-17T13:12:07.575Z,46.60
2022-09-17T13:13:25.002Z,46.60
2022-09-17T13:15:00.763Z,46.70
2022-09-17T13:16:25.860Z,46.60
2022-09-17T13:18:12.371Z,46.60
2022-09-17T13:19:18.111Z,46.60
2022-09-17T13:21:01.359Z,46.60
2022-09-17T13:22:18.372Z,46.50
2022-09-17T13:23:49.420Z,46.60
2022-09-17T13:25:13.394Z,46.60
2022-09-17T13:26:19.790Z,46.70
2022-09-17T13:27:27.715Z,46.70
2022-09-17T13:28:50.095Z,46.70
2022-09-17T13:29:55.057Z,46.80
2022-09-17T13:31:00.592Z,46.70
2022-09-17T13:32:03.041Z,46.70
2022-09-17T13:33:05.602Z,46.70
2022-09-17T13:34:20.311Z,46.70
2022-09-17T13:35:22.618Z,46.70
2022-09-17T13:36:43.831Z,46.70
2022-09-17T13:37:59.138Z,46.70
2022-09-17T13:39:03.065Z,46.80
2022-09-17T13:40:19.317Z,46.80
2022-09-17T13:41:24.114Z,46.70
2022-09-17T13:42:34.305Z,46.70
2022-09-17T13:43:46.638Z,46.70
2022-09-17T13:45:13.476Z,46.80
2022-09-17T13:46:22.730Z,46.70
2022-09-17T13:47:29.755Z,46.80
2022-09-17T13:48:33.779Z,46.80
2022-09-17T13:49:36.406Z,46.80
2022-09-17T13:50:41.598Z,46.70
2022-09-17T13:51:46.545Z,46.80
2022-09-17T13:52:52.159Z,46.80
2022-09-17T13:53:55.859Z,47.30
2022-09-17T13:54:58.601Z,47.40
2022-09-17T13:56:02.004Z,46.80
2022-09-17T13:57:09.834Z,46.80
2022-09-17T13:58:21.324Z,46.80
2022-09-17T13:59:26.671Z,46.80
2022-09-17T14:01:00.074Z,46.80
2022-09-17T14:02:14.789Z,46.80
2022-09-17T14:03:37.169Z,46.90
2022-09-17T14:04:42.447Z,46.90
2022-09-17T14:05:44.772Z,46.90
2022-09-17T14:06:53.555Z,46.80
2022-09-17T14:08:12.867Z,46.80
2022-09-17T14:09:45.871Z,46.90
2022-09-17T14:10:48.526Z,46.80
2022-09-17T14:11:50.874Z,46.90
2022-09-17T14:12:56.141Z,46.90
2022-09-17T14:14:05.603Z,46.80
2022-09-17T14:15:41.994Z,46.90
2022-09-17T14:16:48.147Z,46.90
2022-09-17T14:17:52.371Z,46.90
2022-09-17T14:19:23.051Z,46.90
2022-09-17T14:20:26.374Z,47.50
2022-09-17T14:21:35.991Z,47.00
2022-09-17T14:22:39.222Z,47.00
2022-09-17T14:23:47.408Z,46.90
2022-09-17T14:24:54.645Z,46.90
2022-09-17T14:25:57.699Z,46.90
2022-09-17T14:27:22.175Z,46.90
2022-09-17T14:28:43.247Z,47.00
2022-09-17T14:30:17.867Z,47.00
2022-09-17T14:31:25.124Z,47.00
2022-09-17T14:32:37.707Z,47.00
2022-09-17T14:33:40.150Z,47.00
2022-09-17T14:34:42.568Z,46.90
2022-09-17T14:35:52.579Z,47.00
2022-09-17T14:36:56.167Z,47.00
2022-09-17T14:38:02.776Z,47.00
2022-09-17T14:39:11.754Z,47.00
2022-09-17T14:40:19.520Z,47.00
2022-09-17T14:41:25.973Z,47.10
2022-09-17T14:42:37.105Z,47.00
2022-09-17T14:44:02.848Z,47.00
2022-09-17T14:45:15.582Z,47.00
2022-09-17T14:46:27.787Z,47.00
2022-09-17T14:47:30.180Z,47.10
2022-09-17T14:48:34.971Z,47.00
2022-09-17T14:49:41.002Z,47.00
2022-09-17T14:50:43.352Z,47.00
2022-09-17T14:51:45.907Z,47.00
2022-09-17T14:52:53.138Z,47.00
2022-09-17T14:54:05.622Z,47.10
2022-09-17T14:55:31.097Z,47.10
2022-09-17T14:56:48.273Z,47.10
2022-09-17T14:57:55.875Z,47.10